createdAt,value
2023-04-04T00:00:52.819Z,63.10
2023-04-04T00:03:21.420Z,63.85
2023-04-04T00:05:49.599Z,63.32
2023-04-04T00:08:17.998Z,63.52
2023-04-04T00:10:46.545Z,63.56
2023-04-04T00:13:18.217Z,63.64
2023-04-04T00:15:46.162Z,63.47
2023-04-04T00:18:14.303Z,64.24
2023-04-04T00:20:42.734Z,65.01
2023-04-04T00:23:11.367Z,64.80
2023-04-04T00:25:39.408Z,65.42
2023-04-04T00:28:07.402Z,65.35
2023-04-04T00:30:37.604Z,65.40
2023-04-04T00:33:06.557Z,66.24
2023-04-04T00:35:34.809Z,65.54
2023-04-04T00:38:02.955Z,65.66
2023-04-04T00:40:31.000Z,65.44
2023-04-04T00:43:00.718Z,66.01
2023-04-04T00:45:28.930Z,65.42
2023-04-04T00:47:59.685Z,67.25
2023-04-04T00:50:27.862Z,66.81
2023-04-04T00:52:56.190Z,65.90
2023-04-04T00:55:24.380Z,65.87
2023-04-04T00:57:52.926Z,65.50
2023-04-04T01:00:21.300Z,65.78
2023-04-04T01:02:49.450Z,65.83
2023-04-04T01:05:18.995Z,66.07
2023-04-04T01:07:47.062Z,66.29
2023-04-04T01:10:18.065Z,66.75
2023-04-04T01:12:46.953Z,66.76
2023-04-04T01:15:15.063Z,66.93
2023-04-04T01:17:44.912Z,67.25
2023-04-04T01:20:16.879Z,66.87
2023-04-04T01:22:52.980Z,66.67
2023-04-04T01:25:30.220Z,67.01
2023-04-04T01:28:00.391Z,67.07
2023-04-04T01:30:33.060Z,67.16
2023-04-04T01:33:03.301Z,67.62
2023-04-04T01:35:34.792Z,67.99
2023-04-04T01:38:07.932Z,68.13
2023-04-04T01:40:39.093Z,68.16
2023-04-04T01:43:09.862Z,67.42
2023-04-04T01:45:39.571Z,67.46
2023-04-04T01:48:11.232Z,67.73
2023-04-04T01:50:40.377Z,67.34
2023-04-04T01:53:11.505Z,67.11
2023-04-04T01:55:40.994Z,66.41
2023-04-04T01:58:09.500Z,65.57
2023-04-04T02:00:37.583Z,66.38
2023-04-04T02:03:05.881Z,66.26
2023-04-04T02:05:33.861Z,66.92
2023-04-04T02:08:02.806Z,67.02
2023-04-04T02:10:43.353Z,67.70
2023-04-04T02:13:11.368Z,66.95
2023-04-04T02:15:39.780Z,66.60
2023-04-04T02:18:07.821Z,67.23
2023-04-04T02:20:35.665Z,67.35
2023-04-04T02:23:03.478Z,67.97
2023-04-04T02:25:31.679Z,68.67
2023-04-04T02:28:00.982Z,67.62
2023-04-04T02:30:28.837Z,68.83
2023-04-04T02:32:59.883Z,69.63
2023-04-04T02:35:28.012Z,69.45
2023-04-04T02:37:56.850Z,69.25
2023-04-04T02:40:28.884Z,69.38
2023-04-04T02:42:56.922Z,69.32
2023-04-04T02:45:26.606Z,69.90
2023-04-04T02:48:03.871Z,69.33
2023-04-04T02:50:45.018Z,69.66
2023-04-04T02:53:14.954Z,69.94
2023-04-04T02:55:43.498Z,69.62
2023-04-04T02:58:11.574Z,69.29
2023-04-04T03:00:41.237Z,70.39
2023-04-04T03:03:09.748Z,70.79
2023-04-04T03:05:42.836Z,71.42
2023-04-04T03:08:10.882Z,71.50
2023-04-04T03:10:41.006Z,72.20
2023-04-04T03:13:09.588Z,71.78
2023-04-04T03:15:38.114Z,72.19
2023-04-04T03:18:07.782Z,71.24
2023-04-04T03:20:37.232Z,70.83
2023-04-04T03:23:05.300Z,70.59
2023-04-04T03:25:33.190Z,70.70
2023-04-04T03:28:09.754Z,70.12
2023-04-04T03:30:38.233Z,70.32
2023-04-04T03:33:08.436Z,70.25
2023-04-04T03:35:39.628Z,71.51
2023-04-04T03:38:07.860Z,71.31
2023-04-04T03:40:35.801Z,71.03
2023-04-04T03:43:08.541Z,70.10
2023-04-04T03:45:39.985Z,70.33
2023-04-04T03:48:11.209Z,71.04
2023-04-04T03:50:40.714Z,71.57
2023-04-04T03:53:09.148Z,71.45
2023-04-04T03:55:37.197Z,72.04
2023-04-04T03:58:05.255Z,71.90
2023-04-04T04:00:33.182Z,71.10
2023-04-04T04:03:01.068Z,70.22
2023-04-04T04:05:32.832Z,70.25
2023-04-04T04:08:00.840Z,70.91
2023-04-04T04:10:28.716Z,70.55
2023-04-04T04:12:57.018Z,70.38
2023-04-04T04:15:24.854Z,71.59
2023-04-04T04:17:52.692Z,71.63
2023-04-04T04:20:20.456Z,71.88
2023-04-04T04:22:54.330Z,71.66
2023-04-04T04:25:22.581Z,72.71
2023-04-04T04:28:01.527Z,73.51
2023-04-04T04:30:29.474Z,73.31
2023-04-04T04:32:58.055Z,73.69
2023-04-04T04:35:32.668Z,72.93
2023-04-04T04:38:04.515Z,72.71
2023-04-04T04:40:32.576Z,73.12
2023-04-04T04:43:07.850Z,72.90
2023-04-04T04:45:36.029Z,73.11
2023-04-04T04:48:08.007Z,73.07
2023-04-04T04:50:44.336Z,74.17
2023-04-04T04:53:14.950Z,73.58
2023-04-04T04:55:43.822Z,74.04
2023-04-04T04:58:12.731Z,73.25
2023-04-04T05:00:46.412Z,72.58
2023-04-04T05:03:14.319Z,72.89
2023-04-04T05:05:48.609Z,72.45
2023-04-04T05:08:19.636Z,72.55
2023-04-04T05:11:05.502Z,71.90
2023-04-04T05:13:35.199Z,72.33
2023-04-04T05:16:04.949Z,72.23
2023-04-04T05:18:33.887Z,71.67
2023-04-04T05:21:02.652Z,71.93
2023-04-04T05:23:32.865Z,71.88
2023-04-04T05:26:01.142Z,71.53
2023-04-04T05:28:34.681Z,72.30
2023-04-04T05:31:05.200Z,72.19
2023-04-04T05:33:35.578Z,71.99
2023-04-04T05:36:16.999Z,71.26
2023-04-04T05:38:54.752Z,70.81
2023-04-04T05:41:25.749Z,71.39
2023-04-04T05:43:57.605Z,70.61
2023-04-04T05:46:26.270Z,70.11
2023-04-04T05:48:55.390Z,70.22
2023-04-04T05:51:24.722Z,69.77
2023-04-04T05:54:09.636Z,68.81
2023-04-04T05:56:39.034Z,68.10
2023-04-04T05:59:12.864Z,67.15
2023-04-04T06:01:53.365Z,67.70
2023-04-04T06:04:21.280Z,67.57
2023-04-04T06:06:49.378Z,67.11
2023-04-04T06:09:19.368Z,67.26
2023-04-04T06:11:47.340Z,68.17
2023-04-04T06:14:15.479Z,67.55
2023-04-04T06:16:45.076Z,66.34
2023-04-04T06:19:13.867Z,66.22
2023-04-04T06:21:42.548Z,66.73
2023-04-04T06:24:11.853Z,66.41
2023-04-04T06:26:42.738Z,66.42
2023-04-04T06:29:10.876Z,64.66
2023-04-04T06:31:40.842Z,63.27
2023-04-04T06:34:13.492Z,64.58
2023-04-04T06:36:54.660Z,63.85
2023-04-04T06:39:25.269Z,64.14
2023-04-04T06:41:56.307Z,64.02
2023-04-04T06:44:27.876Z,63.74
2023-04-04T06:46:56.055Z,60.90
2023-04-04T06:49:26.177Z,61.42
2023-04-04T06:51:54.688Z,61.60
2023-04-04T06:54:23.233Z,60.40
2023-04-04T06:56:52.861Z,59.06
2023-04-04T06:59:23.111Z,59.97
2023-04-04T07:01:51.265Z,60.56
2023-04-04T07:04:20.451Z,59.55
2023-04-04T07:06:48.471Z,59.00
2023-04-04T07:09:28.195Z,58.45
2023-04-04T07:11:57.366Z,57.16
2023-04-04T07:14:28.218Z,56.85
2023-04-04T07:16:56.261Z,55.03
2023-04-04T07:19:28.650Z,56.42
2023-04-04T07:21:56.995Z,55.79
2023-04-04T07:24:25.540Z,54.58
2023-04-04T07:26:53.451Z,52.72
2023-04-04T07:29:22.178Z,52.25
2023-04-04T07:31:54.061Z,53.68
2023-04-04T07:34:22.574Z,52.51
2023-04-04T07:36:50.466Z,52.55
2023-04-04T07:39:18.294Z,52.22
2023-04-04T07:41:46.758Z,51.60
2023-04-04T07:44:14.631Z,49.03
2023-04-04T07:46:42.649Z,48.69
2023-04-04T07:49:12.667Z,47.96
2023-04-04T07:51:40.561Z,48.80
2023-04-04T07:54:09.045Z,48.74
2023-04-04T07:56:37.934Z,47.34
2023-04-04T07:59:06.409Z,44.69
2023-04-04T08:01:37.728Z,45.50
2023-04-04T08:04:06.364Z,45.64
2023-04-04T08:06:37.352Z,44.50
2023-04-04T08:09:06.256Z,44.18
2023-04-04T08:11:39.470Z,45.51
2023-04-04T08:14:11.895Z,43.97
2023-04-04T08:16:41.236Z,42.69
2023-04-04T08:19:10.730Z,43.55
2023-04-04T08:21:41.530Z,42.18
2023-04-04T08:24:09.839Z,41.69
2023-04-04T08:26:37.987Z,40.66
2023-04-04T08:29:06.625Z,40.46
2023-04-04T08:31:35.221Z,42.19
2023-04-04T08:34:08.158Z,42.63
2023-04-04T08:36:53.767Z,40.61
2023-04-04T08:39:36.543Z,42.07
2023-04-04T08:42:06.586Z,40.53
2023-04-04T08:44:36.275Z,41.22
2023-04-04T08:47:06.422Z,40.61
2023-04-04T08:49:44.599Z,38.51
2023-04-04T08:52:16.777Z,39.74
2023-04-04T08:54:47.877Z,38.50
2023-04-04T08:57:16.505Z,38.64
2023-04-04T08:59:48.555Z,38.78
2023-04-04T09:02:30.398Z,40.11
2023-04-04T09:05:16.041Z,39.77
2023-04-04T09:08:01.122Z,40.49
2023-04-04T09:10:51.546Z,39.44
2023-04-04T09:13:27.781Z,41.04
2023-04-04T09:15:59.399Z,40.28
2023-04-04T09:18:36.475Z,40.73
2023-04-04T09:21:24.591Z,39.29
2023-04-04T09:24:01.821Z,38.13
2023-04-04T09:26:32.571Z,36.08
2023-04-04T09:29:10.153Z,38.46
2023-04-04T09:31:44.115Z,37.04
2023-04-04T09:34:31.890Z,37.86
2023-04-04T09:37:00.638Z,37.19
2023-04-04T09:39:31.590Z,38.01
2023-04-04T09:42:03.013Z,36.24
2023-04-04T09:44:42.668Z,36.91
2023-04-04T09:47:33.076Z,41.08
2023-04-04T09:50:12.713Z,37.88
2023-04-04T09:53:01.239Z,38.61
2023-04-04T09:55:35.619Z,37.70
2023-04-04T09:58:13.456Z,39.11
2023-04-04T10:00:45.143Z,37.93
2023-04-04T10:03:17.692Z,38.94
2023-04-04T10:05:59.485Z,38.78
2023-04-04T10:08:28.983Z,38.30
2023-04-04T10:11:10.418Z,38.77
2023-04-04T10:13:41.728Z,37.75
2023-04-04T10:16:10.929Z,36.83
2023-04-04T10:18:40.121Z,38.40
2023-04-04T10:23:43.050Z,38.42
2023-04-04T10:26:14.127Z,36.96
2023-04-04T10:28:46.530Z,37.04
2023-04-04T10:31:35.413Z,39.93
2023-04-04T10:34:10.746Z,39.01
2023-04-04T10:36:42.266Z,39.04
2023-04-04T10:39:14.499Z,40.00
2023-04-04T10:41:44.110Z,39.58
2023-04-04T10:44:16.448Z,37.54
2023-04-04T10:46:48.750Z,36.11
2023-04-04T10:49:17.142Z,38.71
2023-04-04T10:51:55.819Z,35.97
2023-04-04T10:54:26.778Z,36.43
2023-04-04T10:57:00.929Z,37.63
2023-04-04T10:59:29.326Z,35.58
2023-04-04T11:02:02.438Z,36.66
2023-04-04T11:04:38.303Z,37.25
2023-04-04T11:07:19.917Z,36.42
2023-04-04T11:09:56.382Z,37.99
2023-04-04T11:12:34.719Z,38.56
2023-04-04T11:15:23.026Z,36.46
2023-04-04T11:18:27.092Z,38.17
2023-04-04T11:21:07.348Z,36.35
2023-04-04T11:24:19.645Z,35.04
2023-04-04T11:26:53.138Z,35.62
2023-04-04T11:30:05.364Z,37.84
2023-04-04T11:33:06.028Z,39.27
2023-04-04T11:35:46.923Z,37.32
2023-04-04T11:38:31.353Z,35.92
2023-04-04T11:41:00.974Z,36.20
2023-04-04T11:43:39.371Z,36.32
2023-04-04T11:46:23.044Z,36.66
2023-04-04T11:49:04.220Z,37.64
2023-04-04T11:51:34.071Z,37.42
2023-04-04T11:54:11.937Z,36.79
2023-04-04T11:57:00.916Z,35.84
2023-04-04T11:59:35.805Z,35.78
2023-04-04T12:02:06.673Z,34.56
2023-04-04T12:04:37.374Z,36.75
2023-04-04T12:07:17.046Z,36.59
2023-04-04T12:10:18.877Z,38.18
2023-04-04T12:13:14.462Z,36.49
2023-04-04T12:15:50.408Z,36.32
2023-04-04T12:18:32.033Z,35.50
2023-04-04T12:21:18.938Z,33.25
2023-04-04T12:24:01.994Z,34.07
2023-04-04T12:26:33.065Z,35.72
2023-04-04T12:29:02.002Z,35.82
2023-04-04T12:31:32.872Z,33.84
2023-04-04T12:34:03.614Z,36.24
2023-04-04T12:36:42.552Z,34.43
2023-04-04T12:39:31.616Z,35.93
2023-04-04T12:42:21.968Z,36.58
2023-04-04T12:44:52.004Z,36.79
2023-04-04T12:47:24.568Z,35.45
2023-04-04T12:49:55.338Z,36.16
2023-04-04T12:52:28.013Z,36.44
2023-04-04T12:55:08.058Z,37.51
2023-04-04T12:57:38.143Z,36.26
2023-04-04T13:00:08.483Z,36.78
2023-04-04T13:02:38.337Z,37.40
2023-04-04T13:05:11.145Z,37.00
2023-04-04T13:07:43.816Z,37.29
2023-04-04T13:10:16.400Z,35.62
2023-04-04T13:12:56.836Z,34.95
2023-04-04T13:15:25.542Z,33.63
2023-04-04T13:17:54.275Z,35.68
2023-04-04T13:20:26.814Z,35.50
2023-04-04T13:22:59.534Z,36.69
2023-04-04T13:25:27.599Z,35.42
2023-04-04T13:27:56.127Z,33.48
2023-04-04T13:30:25.130Z,34.52
2023-04-04T13:32:53.026Z,36.40
2023-04-04T13:35:21.806Z,35.56
2023-04-04T13:37:52.626Z,35.81
2023-04-04T13:40:20.636Z,34.02
2023-04-04T13:42:48.589Z,36.57
2023-04-04T13:45:17.374Z,36.49
2023-04-04T13:47:45.399Z,36.77
2023-04-04T13:50:13.312Z,37.19
2023-04-04T13:52:41.148Z,35.50
2023-04-04T13:55:11.831Z,36.59
2023-04-04T13:57:39.713Z,35.79
2023-04-04T14:00:09.207Z,38.10
2023-04-04T14:02:40.308Z,38.95
2023-04-04T14:05:09.240Z,37.75
2023-04-04T14:07:37.778Z,36.58
2023-04-04T14:10:07.131Z,37.03
2023-04-04T14:12:36.407Z,36.26
2023-04-04T14:15:05.052Z,36.89
2023-04-04T14:17:32.989Z,37.54
2023-04-04T14:20:03.615Z,36.84
2023-04-04T14:22:31.518Z,39.86
2023-04-04T14:24:59.405Z,38.14
2023-04-04T14:27:27.150Z,37.84
2023-04-04T14:29:57.464Z,38.37
2023-04-04T14:32:26.036Z,37.12
2023-04-04T14:34:54.850Z,36.86
2023-04-04T14:37:23.155Z,36.03
2023-04-04T14:39:51.084Z,36.94
2023-04-04T14:42:20.142Z,36.60
2023-04-04T14:44:48.966Z,35.53
2023-04-04T14:47:24.420Z,36.83
2023-04-04T14:49:54.926Z,36.91
2023-04-04T14:52:55.423Z,36.66
2023-04-04T14:55:41.943Z,37.38
2023-04-04T14:58:33.007Z,36.36
2023-04-04T15:01:17.626Z,36.18
2023-04-04T15:04:16.465Z,37.70
2023-04-04T15:06:54.802Z,38.54
2023-04-04T15:09:31.519Z,38.70
2023-04-04T15:12:12.139Z,39.93
2023-04-04T15:14:50.085Z,38.80
2023-04-04T15:17:32.769Z,38.43
2023-04-04T15:20:24.657Z,38.16
2023-04-04T15:23:10.329Z,37.75
2023-04-04T15:25:56.112Z,38.99
2023-04-04T15:28:32.119Z,39.82
2023-04-04T15:31:08.752Z,38.96
2023-04-04T15:33:48.060Z,41.10
2023-04-04T15:36:36.643Z,40.56
2023-04-04T15:39:49.671Z,40.06
2023-04-04T15:42:29.875Z,39.40
2023-04-04T15:45:04.633Z,40.72
2023-04-04T15:47:43.419Z,39.56
2023-04-04T15:50:16.879Z,39.29
2023-04-04T15:52:52.016Z,39.76
2023-04-04T15:55:34.985Z,39.90
2023-04-04T15:58:29.676Z,39.70
2023-04-04T16:01:02.179Z,40.21
2023-04-04T16:03:36.324Z,39.73
2023-04-04T16:06:15.291Z,41.43
2023-04-04T16:08:59.126Z,39.90
2023-04-04T16:11:28.006Z,39.88
2023-04-04T16:13:56.911Z,40.29
2023-04-04T16:16:26.003Z,40.13
2023-04-04T16:18:54.316Z,40.01
2023-04-04T16:21:22.619Z,40.15
2023-04-04T16:23:50.666Z,41.06
2023-04-04T16:26:21.476Z,40.93
2023-04-04T16:28:50.106Z,41.55
2023-04-04T16:31:18.499Z,40.97
2023-04-04T16:33:47.965Z,41.61
2023-04-04T16:36:17.477Z,41.89
2023-04-04T16:38:47.637Z,41.97
2023-04-04T16:41:19.568Z,42.93
2023-04-04T16:43:53.461Z,42.23
2023-04-04T16:46:22.424Z,42.20
2023-04-04T16:48:50.850Z,42.39
2023-04-04T16:51:19.814Z,42.70
2023-04-04T16:53:48.613Z,42.85
2023-04-04T16:56:17.435Z,42.21
2023-04-04T16:58:47.577Z,42.44
2023-04-04T17:01:20.599Z,42.14
2023-04-04T17:03:49.617Z,43.08
2023-04-04T17:06:18.876Z,43.86
2023-04-04T17:08:49.971Z,43.36
2023-04-04T17:11:18.981Z,43.67
2023-04-04T17:13:51.396Z,44.09
2023-04-04T17:16:20.284Z,44.34
2023-04-04T17:18:50.417Z,45.02
2023-04-04T17:21:25.211Z,44.70
2023-04-04T17:23:55.446Z,45.21
2023-04-04T17:26:29.480Z,45.67
2023-04-04T17:29:22.098Z,45.65
2023-04-04T17:32:08.142Z,46.49
2023-04-04T17:34:39.405Z,46.37
2023-04-04T17:37:12.510Z,46.66
2023-04-04T17:39:42.818Z,47.09
2023-04-04T17:42:15.627Z,48.00
2023-04-04T17:44:53.927Z,47.12
2023-04-04T17:47:27.003Z,47.44
2023-04-04T17:50:04.140Z,47.99
2023-04-04T17:52:33.234Z,48.18
2023-04-04T17:55:02.387Z,48.63
2023-04-04T17:57:31.988Z,48.63
2023-04-04T18:00:02.579Z,48.75
2023-04-04T18:02:37.028Z,48.50
2023-04-04T18:05:10.283Z,48.85
2023-04-04T18:07:39.702Z,49.28
2023-04-04T18:10:09.683Z,49.12
2023-04-04T18:12:37.908Z,49.38
2023-04-04T18:15:09.821Z,49.38
2023-04-04T18:17:41.481Z,49.87
2023-04-04T18:20:12.629Z,49.98
2023-04-04T18:22:42.962Z,49.91
2023-04-04T18:25:11.576Z,50.29
2023-04-04T18:27:39.705Z,50.10
2023-04-04T18:30:10.892Z,50.51
2023-04-04T18:32:40.842Z,50.62
2023-04-04T18:35:10.269Z,50.79
2023-04-04T18:37:38.599Z,50.59
2023-04-04T18:40:10.334Z,50.67
2023-04-04T18:42:38.666Z,51.07
2023-04-04T18:45:09.866Z,50.98
2023-04-04T18:47:42.112Z,50.86
2023-04-04T18:50:13.950Z,50.51
2023-04-04T18:52:43.394Z,51.03
2023-04-04T18:55:13.385Z,50.81
2023-04-04T18:57:42.087Z,51.59
2023-04-04T19:00:16.557Z,51.15
2023-04-04T19:02:45.411Z,51.45
2023-04-04T19:05:14.632Z,51.83
2023-04-04T19:07:44.818Z,51.96
2023-04-04T19:10:15.015Z,51.99
2023-04-04T19:12:43.580Z,52.24
2023-04-04T19:15:12.287Z,51.92
2023-04-04T19:17:42.487Z,52.00
2023-04-04T19:20:14.280Z,52.18
2023-04-04T19:22:42.998Z,52.06
2023-04-04T19:25:12.134Z,52.29
2023-04-04T19:27:40.541Z,52.65
2023-04-04T19:30:34.550Z,52.96
2023-04-04T19:33:09.873Z,52.73
2023-04-04T19:35:55.272Z,52.90
2023-04-04T19:38:25.984Z,53.33
2023-04-04T19:40:58.068Z,52.94
2023-04-04T19:43:28.744Z,53.62
2023-04-04T19:45:57.983Z,53.79
2023-04-04T19:48:42.030Z,53.40
2023-04-04T19:51:11.181Z,53.50
2023-04-04T19:53:42.778Z,53.52
2023-04-04T19:56:15.838Z,53.92
2023-04-04T19:58:48.522Z,54.04
2023-04-04T20:01:23.312Z,52.98
2023-04-04T20:03:53.027Z,53.26
2023-04-04T20:06:27.691Z,53.24
2023-04-04T20:08:57.585Z,53.32
2023-04-04T20:11:33.881Z,53.33
2023-04-04T20:14:22.365Z,53.14
2023-04-04T20:16:57.359Z,53.34
2023-04-04T20:19:47.007Z,53.92
2023-04-04T20:22:16.472Z,53.88
2023-04-04T20:24:47.058Z,53.32
2023-04-04T20:27:23.293Z,53.11
2023-04-04T20:29:54.542Z,53.04
2023-04-04T20:32:22.577Z,52.82
2023-04-04T20:34:53.032Z,52.25
2023-04-04T20:37:22.783Z,51.75
2023-04-04T20:39:54.686Z,51.96
2023-04-04T20:42:40.127Z,53.56
2023-04-04T20:45:34.777Z,53.72
2023-04-04T20:48:06.810Z,54.99
2023-04-04T20:50:47.362Z,55.37
2023-04-04T20:53:20.146Z,55.30
2023-04-04T20:55:50.553Z,55.52
2023-04-04T20:58:27.942Z,54.94
2023-04-04T21:00:58.005Z,54.11
2023-04-04T21:03:32.007Z,53.65
2023-04-04T21:06:04.477Z,54.58
2023-04-04T21:08:39.378Z,54.30
2023-04-04T21:11:07.915Z,54.93
2023-04-04T21:13:39.971Z,55.31
2023-04-04T21:16:09.567Z,57.33
2023-04-04T21:18:38.702Z,57.22
2023-04-04T21:21:13.895Z,57.62
2023-04-04T21:23:45.764Z,58.04
2023-04-04T21:26:21.749Z,57.58
2023-04-04T21:28:49.717Z,57.95
2023-04-04T21:31:19.166Z,57.66
2023-04-04T21:33:48.695Z,57.67
2023-04-04T21:36:29.134Z,56.49
2023-04-04T21:38:58.830Z,55.61
2023-04-04T21:41:28.803Z,56.83
2023-04-04T21:43:58.346Z,58.35
2023-04-04T21:46:27.912Z,58.91
2023-04-04T21:48:56.794Z,59.09
2023-04-04T21:51:26.220Z,57.73
2023-04-04T21:53:54.724Z,55.75
2023-04-04T21:56:27.283Z,55.25
2023-04-04T21:58:55.996Z,55.34
2023-04-04T22:01:24.212Z,56.80
2023-04-04T22:03:52.205Z,58.27
2023-04-04T22:06:21.987Z,59.68
2023-04-04T22:08:51.277Z,59.42
2023-04-04T22:11:20.099Z,59.08
2023-04-04T22:13:48.895Z,58.71
2023-04-04T22:16:17.569Z,57.15
2023-04-04T22:18:47.771Z,55.96
2023-04-04T22:21:17.200Z,55.77
2023-04-04T22:23:48.203Z,56.71
2023-04-04T22:26:33.033Z,56.98
2023-04-04T22:29:03.012Z,57.92
2023-04-04T22:31:34.283Z,57.37
2023-04-04T22:34:03.165Z,56.78
2023-04-04T22:36:31.760Z,55.38
2023-04-04T22:38:59.922Z,54.77
2023-04-04T22:41:30.414Z,54.05
2023-04-04T22:43:58.751Z,53.85
2023-04-04T22:46:28.867Z,56.02
2023-04-04T22:49:05.700Z,57.84
2023-04-04T22:51:44.061Z,59.40
2023-04-04T22:54:16.383Z,59.28
2023-04-04T22:56:46.428Z,59.51
2023-04-04T22:59:15.506Z,60.85
2023-04-04T23:01:43.636Z,61.55
2023-04-04T23:04:11.931Z,61.73
2023-04-04T23:06:40.228Z,61.16
2023-04-04T23:09:08.749Z,62.62
2023-04-04T23:11:37.033Z,62.36
2023-04-04T23:14:09.268Z,61.08
2023-04-04T23:16:38.247Z,58.42
2023-04-04T23:19:06.295Z,58.19
2023-04-04T23:21:34.160Z,59.33
2023-04-04T23:24:02.156Z,57.95
2023-04-04T23:26:30.205Z,59.04
2023-04-04T23:28:59.073Z,58.11
2023-04-04T23:31:28.680Z,57.75
2023-04-04T23:33:56.716Z,57.45
2023-04-04T23:36:24.607Z,58.04
2023-04-04T23:38:54.839Z,60.82
2023-04-04T23:41:23.309Z,59.33
2023-04-04T23:43:54.688Z,57.51
2023-04-04T23:46:23.940Z,59.46
2023-04-04T23:48:53.347Z,58.39
2023-04-04T23:51:25.816Z,57.84
2023-04-04T23:53:53.808Z,57.25
2023-04-04T23:56:22.566Z,56.33
2023-04-04T23:58:50.664Z,57.81
